createdAt,value
2023-02-12T00:00:15.768Z,101985.38
2023-02-12T00:05:16.582Z,101990.53
2023-02-12T00:10:15.430Z,101984.53
2023-02-12T00:15:15.552Z,101984.44
2023-02-12T00:20:14.565Z,101986.19
2023-02-12T00:25:14.083Z,101961.00
2023-02-12T00:30:13.752Z,101982.66
2023-02-12T00:35:14.212Z,101990.31
2023-02-12T00:40:13.798Z,101987.53
2023-02-12T00:45:12.588Z,101977.22
2023-02-12T00:50:13.543Z,101966.75
2023-02-12T00:55:12.869Z,101958.81
2023-02-12T01:00:13.066Z,101954.72
2023-02-12T01:05:13.245Z,101938.38
2023-02-12T01:10:12.998Z,101933.22
2023-02-12T01:15:13.036Z,101927.03
2023-02-12T01:20:17.453Z,101925.19
2023-02-12T01:25:18.734Z,101914.16
2023-02-12T01:30:22.240Z,101917.59
2023-02-12T01:35:24.324Z,101929.84
2023-02-12T01:40:23.016Z,101948.72
2023-02-12T01:45:53.688Z,101959.91
2023-02-12T01:50:56.074Z,101951.03
2023-02-12T01:55:58.514Z,101949.25
2023-02-12T02:00:57.759Z,101941.66
2023-02-12T02:06:03.941Z,101942.34
2023-02-12T02:11:23.993Z,101940.78
2023-02-12T02:16:27.349Z,101940.72
2023-02-12T02:21:48.789Z,101936.53
2023-02-12T02:27:20.121Z,101936.47
2023-02-12T02:32:25.651Z,101932.06
2023-02-12T02:37:31.403Z,101931.00
2023-02-12T02:42:36.225Z,101948.44
2023-02-12T02:47:42.728Z,101951.22
2023-02-12T02:52:46.449Z,101952.13
2023-02-12T02:57:49.851Z,101959.84
2023-02-12T03:02:53.924Z,101964.13
2023-02-12T03:07:56.270Z,101970.41
2023-02-12T03:12:58.869Z,101981.56
2023-02-12T03:18:01.120Z,101986.03
2023-02-12T03:23:05.675Z,101991.16
2023-02-12T03:28:08.288Z,101972.75
2023-02-12T03:33:19.682Z,101983.34
2023-02-12T03:38:29.112Z,101990.44
2023-02-12T03:43:34.745Z,101993.06
2023-02-12T03:48:42.611Z,102010.44
2023-02-12T03:53:42.787Z,101995.75
2023-02-12T03:58:43.722Z,102000.03
2023-02-12T04:03:43.873Z,101996.66
2023-02-12T04:08:42.709Z,101996.69
2023-02-12T04:13:47.432Z,101991.50
2023-02-12T04:18:49.709Z,102000.19
2023-02-12T04:23:56.070Z,102019.19
2023-02-12T04:29:06.694Z,102007.06
2023-02-12T04:34:13.716Z,102006.13
2023-02-12T04:39:17.952Z,102005.91
2023-02-12T04:44:19.059Z,102012.91
2023-02-12T04:49:21.667Z,102026.84
2023-02-12T04:54:22.186Z,102027.75
2023-02-12T04:59:20.967Z,102030.34
2023-02-12T05:04:21.219Z,102027.50
2023-02-12T05:09:21.763Z,102038.06
2023-02-12T05:14:20.586Z,102043.94
2023-02-12T05:19:20.744Z,102048.19
2023-02-12T05:24:19.691Z,102067.53
2023-02-12T05:29:21.998Z,102079.69
2023-02-12T05:34:22.327Z,102084.06
2023-02-12T05:39:21.178Z,102097.03
2023-02-12T05:44:19.917Z,102097.97
2023-02-12T05:49:18.752Z,102104.00
2023-02-12T05:54:18.918Z,102111.78
2023-02-12T05:59:20.114Z,102139.56
2023-02-12T06:04:20.869Z,102135.25
2023-02-12T06:09:21.611Z,102125.69
2023-02-12T06:14:21.658Z,102136.94
2023-02-12T06:19:22.201Z,102156.00
2023-02-12T06:24:24.844Z,102156.09
2023-02-12T06:29:24.288Z,102171.75
2023-02-12T06:34:23.125Z,102175.22
2023-02-12T06:39:23.291Z,102183.06
2023-02-12T06:44:22.134Z,102178.66
2023-02-12T06:49:20.994Z,102184.81
2023-02-12T06:54:20.084Z,102182.19
2023-02-12T06:59:21.265Z,102179.59
2023-02-12T07:04:20.199Z,102179.50
2023-02-12T07:09:18.999Z,102176.28
2023-02-12T07:14:19.525Z,102188.50
2023-02-12T07:19:18.413Z,102199.69
2023-02-12T07:24:18.288Z,102197.91
2023-02-12T07:29:17.294Z,102214.41
2023-02-12T07:34:17.549Z,102216.13
2023-02-12T07:39:16.299Z,102212.66
2023-02-12T07:44:15.126Z,102208.25
2023-02-12T07:49:15.543Z,102226.44
2023-02-12T07:54:16.484Z,102235.19
2023-02-12T07:59:17.656Z,102241.38
2023-02-12T08:04:18.439Z,102248.41
2023-02-12T08:09:21.089Z,102244.09
2023-02-12T08:14:22.790Z,102247.59
2023-02-12T08:19:25.801Z,102252.72
2023-02-12T08:24:26.975Z,102267.47
2023-02-12T08:29:27.911Z,102282.19
2023-02-12T08:34:28.204Z,102287.44
2023-02-12T08:39:30.790Z,102297.81
2023-02-12T08:44:29.967Z,102300.38
2023-02-12T08:49:31.574Z,102322.13
2023-02-12T08:54:32.834Z,102332.56
2023-02-12T08:59:32.117Z,102331.84
2023-02-12T09:04:31.441Z,102344.03
2023-02-12T09:09:31.744Z,102339.66
2023-02-12T09:14:30.521Z,102338.78
2023-02-12T09:19:29.348Z,102358.81
2023-02-12T09:24:28.562Z,102355.31
2023-02-12T09:29:28.842Z,102351.84
2023-02-12T09:34:27.878Z,102356.19
2023-02-12T09:39:29.029Z,102353.56
2023-02-12T09:44:38.495Z,102344.00
2023-02-12T09:49:51.215Z,102354.44
2023-02-12T09:54:50.967Z,102370.84
2023-02-12T09:59:56.720Z,102363.88
2023-02-12T10:05:01.723Z,102369.91
2023-02-12T10:10:13.583Z,102369.03
2023-02-12T10:15:29.099Z,102376.94
2023-02-12T10:20:55.323Z,102370.84
2023-02-12T10:25:56.841Z,102374.28
2023-02-12T10:31:01.102Z,102372.47
2023-02-12T10:36:06.389Z,102376.06
2023-02-12T10:41:05.422Z,102378.72
2023-02-12T10:46:06.340Z,102383.84
2023-02-12T10:51:21.993Z,102395.25
2023-02-12T10:56:27.724Z,102397.88
2023-02-12T11:01:30.594Z,102408.28
2023-02-12T11:06:31.675Z,102409.16
2023-02-12T11:11:32.512Z,102417.81
2023-02-12T11:16:35.494Z,102422.16
2023-02-12T11:21:35.851Z,102419.59
2023-02-12T11:26:34.792Z,102411.72
2023-02-12T11:31:39.326Z,102411.78
2023-02-12T11:36:40.247Z,102411.75
2023-02-12T11:41:41.773Z,102412.56
2023-02-12T11:46:48.729Z,102414.41
2023-02-12T11:51:49.404Z,102428.34
2023-02-12T11:56:48.988Z,102425.72
2023-02-12T12:01:51.942Z,102416.13
2023-02-12T12:06:57.735Z,102412.66
2023-02-12T12:12:04.208Z,102405.72
2023-02-12T12:17:27.383Z,102417.88
2023-02-12T12:22:40.838Z,102397.78
2023-02-12T12:28:06.544Z,102411.72
2023-02-12T12:33:14.998Z,102414.31
2023-02-12T12:38:25.460Z,102413.38
2023-02-12T12:43:33.245Z,102420.38
2023-02-12T12:48:54.248Z,102422.91
2023-02-12T12:54:04.840Z,102435.16
2023-02-12T12:59:45.580Z,102435.16
2023-02-12T13:05:26.220Z,102442.09
2023-02-12T13:10:34.962Z,102450.75
2023-02-12T13:15:41.399Z,102463.75
2023-02-12T13:20:52.685Z,102473.34
2023-02-12T13:26:01.177Z,102475.09
2023-02-12T13:31:03.695Z,102482.97
2023-02-12T13:36:08.108Z,102491.69
2023-02-12T13:41:09.418Z,102496.94
2023-02-12T13:46:15.910Z,102495.19
2023-02-12T13:51:28.174Z,102503.06
2023-02-12T13:56:36.139Z,102492.59
2023-02-12T14:01:47.605Z,102500.44
2023-02-12T14:07:00.708Z,102506.56
2023-02-12T14:12:01.496Z,102493.53
2023-02-12T14:17:38.704Z,102508.28
2023-02-12T14:23:19.787Z,102510.81
2023-02-12T14:28:27.533Z,102516.91
2023-02-12T14:33:28.353Z,102530.66
2023-02-12T14:39:02.746Z,102538.81
2023-02-12T14:44:44.657Z,102540.81
2023-02-12T14:49:48.687Z,102553.75
2023-02-12T14:54:50.979Z,102546.19
2023-02-12T14:59:51.161Z,102552.59
2023-02-12T15:04:54.311Z,102563.56
2023-02-12T15:10:00.677Z,102577.72
2023-02-12T15:15:07.413Z,102573.19
2023-02-12T15:20:15.100Z,102588.16
2023-02-12T15:25:18.979Z,102588.56
2023-02-12T15:30:26.305Z,102599.22
2023-02-12T15:35:29.761Z,102605.69
2023-02-12T15:40:29.665Z,102620.06
2023-02-12T15:45:30.309Z,102642.25
2023-02-12T15:50:32.720Z,102647.66
2023-02-12T15:55:40.883Z,102666.16
2023-02-12T16:00:44.107Z,102679.41
2023-02-12T16:05:45.278Z,102683.94
2023-02-12T16:10:47.596Z,102692.72
2023-02-12T16:15:46.427Z,102711.94
2023-02-12T16:20:47.869Z,102711.09
2023-02-12T16:25:56.023Z,102725.91
2023-02-12T16:31:07.655Z,102736.34
2023-02-12T16:36:14.393Z,102744.06
2023-02-12T16:41:23.758Z,102744.09
2023-02-12T16:46:23.074Z,102753.63
2023-02-12T16:51:26.153Z,102751.81
2023-02-12T16:56:26.617Z,102770.13
2023-02-12T17:01:28.496Z,102785.78
2023-02-12T17:06:30.907Z,102791.84
2023-02-12T17:11:30.223Z,102802.28
2023-02-12T17:16:31.201Z,102792.72
2023-02-12T17:21:38.074Z,102804.91
2023-02-12T17:26:36.989Z,102797.09
2023-02-12T17:31:36.829Z,102801.47
2023-02-12T17:36:37.340Z,102815.38
2023-02-12T17:41:37.200Z,102813.63
2023-02-12T17:46:36.075Z,102826.69
2023-02-12T17:51:36.195Z,102831.03
2023-02-12T17:56:34.999Z,102827.56
2023-02-12T18:01:34.757Z,102831.03
2023-02-12T18:06:33.742Z,102835.41
2023-02-12T18:11:34.240Z,102847.59
2023-02-12T18:16:35.293Z,102860.66
2023-02-12T18:21:35.181Z,102863.25
2023-02-12T18:26:35.495Z,102859.75
2023-02-12T18:31:35.370Z,102873.66
2023-02-12T18:36:34.911Z,102882.38
2023-02-12T18:41:36.055Z,102891.06
2023-02-12T18:46:34.951Z,102898.88
2023-02-12T18:51:37.349Z,102905.84
2023-02-12T18:56:41.059Z,102913.69
2023-02-12T19:01:39.780Z,102925.09
2023-02-12T19:06:41.934Z,102924.13
2023-02-12T19:11:42.070Z,102931.94
2023-02-12T19:16:41.567Z,102944.13
2023-02-12T19:21:40.796Z,102945.00
2023-02-12T19:26:40.023Z,102948.47
2023-02-12T19:31:58.920Z,102963.25
2023-02-12T19:36:58.136Z,102973.66
2023-02-12T19:41:57.314Z,102975.34
2023-02-12T19:46:59.701Z,102980.44
2023-02-12T19:51:59.042Z,102977.88
2023-02-12T19:56:58.368Z,102977.91
2023-02-12T20:01:59.561Z,102968.38
2023-02-12T20:06:59.125Z,102978.81
2023-02-12T20:11:58.398Z,102986.47
2023-02-12T20:17:02.598Z,102980.38
2023-02-12T20:22:04.812Z,102982.13
2023-02-12T20:27:06.517Z,102989.06
2023-02-12T20:32:08.589Z,102996.84
2023-02-12T20:37:08.640Z,103004.59
2023-02-12T20:42:09.158Z,102993.22
2023-02-12T20:47:11.148Z,103004.47
2023-02-12T20:52:11.438Z,102995.69
2023-02-12T20:57:13.154Z,102995.59
2023-02-12T21:02:13.541Z,103005.09
2023-02-12T21:07:12.356Z,103011.09
2023-02-12T21:12:20.581Z,103010.09
2023-02-12T21:17:22.170Z,103023.91
2023-02-12T21:22:21.563Z,103028.19
2023-02-12T21:27:20.528Z,103024.59
2023-02-12T21:32:20.827Z,103027.94
2023-02-12T21:37:19.806Z,103032.19
2023-02-12T21:42:18.551Z,103039.03
2023-02-12T21:47:17.381Z,103036.41
2023-02-12T21:52:17.482Z,103037.19
2023-02-12T21:57:19.931Z,103044.94
2023-02-12T22:02:18.822Z,103044.88
2023-02-12T22:07:21.007Z,103037.84
2023-02-12T22:12:19.809Z,103055.16
2023-02-12T22:17:18.582Z,103051.63
2023-02-12T22:22:18.841Z,103047.28
2023-02-12T22:27:17.597Z,103051.59
2023-02-12T22:32:16.430Z,103049.78
2023-02-12T22:37:15.306Z,103047.16
2023-02-12T22:42:15.437Z,103060.09
2023-02-12T22:47:25.873Z,103053.13
2023-02-12T22:52:26.050Z,103054.75
2023-02-12T22:57:28.167Z,103059.94
2023-02-12T23:02:26.942Z,103062.47
2023-02-12T23:07:27.819Z,103070.25
2023-02-12T23:12:27.954Z,103064.94
2023-02-12T23:17:26.762Z,103065.66
2023-02-12T23:22:25.582Z,103068.22
2023-02-12T23:27:24.426Z,103075.03
2023-02-12T23:32:24.671Z,103072.34
2023-02-12T23:37:23.740Z,103066.28
2023-02-12T23:42:22.586Z,103072.31
2023-02-12T23:47:21.297Z,103071.31
2023-02-12T23:52:21.405Z,103072.22
2023-02-12T23:57:20.305Z,103087.06
